Stow on the Wold, United Kingdom
Current Conditions -  °F | °C
As of 9:50 PM on Tuesday 25 Nov 2014 (Local Time) from EGVN Reporting Station
Light Rain Light Rain  
Wind Chill: 40°   Ceiling: 3500
Heat Index: 45°   Visibility: 4mi
Dew Point: 43°   Wind: 8mph
Humidity: 93%   Direction: 20°NNE
Pressure: 30.03"   Gusts: NA
Location:  51.93°N, 1.72°W
Report Text: EGVN 252150Z 02007KT 6000 -RA FEW009 SCT022 BKN035 07/06 Q1017 WHT TEMPO SCT009 GRN
Loading
Personal Weather Stations






























Interactive Weather Map New forecast layout! Learn more

10-Day Weather Forecast

Advertisements
Track Severe Weather on mobile